Time;durP1;ratioP1;P1;durP2;ratioP2;P2;SDS_P1;SDS_P2;PMS_P1;PMS_P2;Temp;Humidity;BMP_temperature;BMP_pressure;BME280_temperature;BME280_humidity;BME280_pressure;Samples;Min_cycle;Max_cycle;Signal;HPM_P1;HPM_P2
2023/02/24 00:03:10;;;;;;;7.75;3.80;;;3.90;99.90;;;;;;8139057;29;20043;-79
2023/02/24 00:07:11;;;;;;;10.60;4.43;;;4.20;99.90;;;;;;8137574;29;20028;-79
2023/02/24 00:11:15;;;;;;;6.35;3.45;;;4.10;99.90;;;;;;8139145;29;20031;-79
2023/02/24 00:15:16;;;;;;;7.22;3.47;;;3.90;99.90;;;;;;8136125;29;20036;-78
2023/02/24 00:19:19;;;;;;;10.60;3.92;;;4.00;99.90;;;;;;8138696;29;20032;-79
2023/02/24 00:23:19;;;;;;;7.65;3.72;;;3.80;99.90;;;;;;8138022;29;20037;-79
2023/02/24 00:27:20;;;;;;;7.50;3.78;;;3.70;99.90;;;;;;8127313;29;20032;-79
2023/02/24 00:31:22;;;;;;;10.93;4.90;;;3.80;99.90;;;;;;8136084;29;20029;-79
2023/02/24 00:35:23;;;;;;;10.45;4.40;;;3.70;99.90;;;;;;8143227;29;20032;-77
2023/02/24 00:39:32;;;;;;;8.15;4.32;;;3.40;99.90;;;;;;8136515;29;20561;-78
2023/02/24 00:43:36;;;;;;;8.88;3.78;;;3.10;99.90;;;;;;8136422;29;20047;-77
2023/02/24 00:47:38;;;;;;;7.20;3.83;;;2.80;99.90;;;;;;8135229;29;20058;-78
2023/02/24 00:51:40;;;;;;;7.32;4.10;;;2.80;99.90;;;;;;8134962;29;20501;-79
2023/02/24 00:55:41;;;;;;;5.95;2.95;;;2.80;99.90;;;;;;8135484;29;20497;-78
2023/02/24 00:59:46;;;;;;;4.07;3.15;;;;;;;;;;8135883;29;20060;-79
2023/02/24 01:03:50;;;;;;;6.00;3.72;;;3.10;99.90;;;;;;8134801;29;20083;-78
2023/02/24 01:07:50;;;;;;;6.82;3.33;;;2.90;99.90;;;;;;8136011;29;20039;-78
2023/02/24 01:16:17;;;;;;;6.53;3.65;;;2.50;99.90;;;;;;8136255;29;20043;-79
2023/02/24 01:20:18;;;;;;;10.00;4.28;;;2.20;99.90;;;;;;8136264;29;20036;-78
2023/02/24 01:24:18;;;;;;;6.88;3.83;;;2.10;99.90;;;;;;8135636;29;20433;-79
2023/02/24 01:28:19;;;;;;;7.05;3.75;;;2.00;99.90;;;;;;8135049;29;20031;-79
2023/02/24 01:32:20;;;;;;;12.02;4.15;;;1.90;99.90;;;;;;8134626;29;20028;-79
2023/02/24 01:36:25;;;;;;;5.95;3.78;;;1.90;99.90;;;;;;8131220;29;20036;-79
2023/02/24 01:40:26;;;;;;;11.98;4.50;;;2.10;99.90;;;;;;8134543;29;20118;-79
2023/02/24 01:44:31;;;;;;;7.57;3.45;;;2.00;99.90;;;;;;8133414;29;20040;-78
2023/02/24 01:48:32;;;;;;;10.35;3.90;;;2.00;99.90;;;;;;8134829;29;20028;-79
2023/02/24 01:52:36;;;;;;;9.23;4.10;;;1.90;99.90;;;;;;8134045;29;20532;-78
2023/02/24 01:56:40;;;;;;;6.85;3.65;;;2.00;99.90;;;;;;8134500;29;20063;-79
2023/02/24 02:00:45;;;;;;;6.47;3.45;;;2.00;99.90;;;;;;8134186;29;20560;-78
2023/02/24 02:05:19;;;;;;;13.10;3.67;;;1.90;99.90;;;;;;8130232;29;20028;-78
2023/02/24 02:09:21;;;;;;;9.65;3.10;;;1.70;99.90;;;;;;8099933;29;20029;-78
2023/02/24 02:13:21;;;;;;;5.65;3.10;;;1.50;99.90;;;;;;8129408;29;20079;-77
2023/02/24 02:17:27;;;;;;;5.72;3.00;;;1.40;99.90;;;;;;8128972;29;20028;-78
2023/02/24 02:21:53;;;;;;;8.95;3.92;;;1.20;99.90;;;;;;8133035;29;20039;-77
2023/02/24 02:26:17;;;;;;;6.60;3.17;;;1.20;99.90;;;;;;8135503;29;20083;-78
2023/02/24 02:30:45;;;;;;;5.07;3.20;;;1.40;99.90;;;;;;8135460;29;20024;-78
2023/02/24 02:35:17;;;;;;;6.30;3.10;;;1.60;99.90;;;;;;8135015;29;20181;-78
2023/02/24 02:39:32;;;;;;;8.50;3.50;;;1.60;99.90;;;;;;8135076;29;20036;-78
2023/02/24 02:43:51;;;;;;;10.82;4.97;;;1.50;99.90;;;;;;8136611;29;20123;-78
2023/02/24 02:48:11;;;;;;;7.20;3.78;;;1.50;99.90;;;;;;8135526;29;20076;-77
2023/02/24 02:52:24;;;;;;;5.65;3.15;;;1.70;99.90;;;;;;8138138;29;20031;-78
2023/02/24 02:56:30;;;;;;;6.35;3.75;;;1.70;99.90;;;;;;8139987;29;20111;-78
2023/02/24 03:00:57;;;;;;;8.23;2.78;;;2.10;99.90;;;;;;8138256;29;20024;-77
2023/02/24 03:05:00;;;;;;;3.55;2.33;;;2.10;99.90;;;;;;8137353;29;20030;-76
2023/02/24 03:09:29;;;;;;;5.88;2.65;;;2.20;99.90;;;;;;8137902;29;20020;-78
2023/02/24 03:13:33;;;;;;;7.38;3.83;;;2.30;99.90;;;;;;8134560;29;20032;-77
2023/02/24 03:17:40;;;;;;;6.80;3.00;;;2.00;99.90;;;;;;8137881;29;20144;-77
2023/02/24 03:21:44;;;;;;;7.97;3.17;;;1.70;99.90;;;;;;8138006;29;20035;-78
2023/02/24 03:26:00;;;;;;;6.00;3.08;;;1.50;99.90;;;;;;8137340;29;20058;-77
2023/02/24 03:30:34;;;;;;;5.88;3.15;;;2.10;99.90;;;;;;8137363;29;20397;-77
2023/02/24 03:34:55;;;;;;;6.68;3.17;;;2.10;99.90;;;;;;8136191;29;20055;-77
2023/02/24 03:38:57;;;;;;;7.65;3.63;;;2.30;99.90;;;;;;8135978;29;20039;-76
2023/02/24 03:43:16;;;;;;;5.35;2.75;;;2.60;99.90;;;;;;8133769;29;20155;-77
2023/02/24 03:47:19;;;;;;;9.50;3.63;;;2.70;99.90;;;;;;8133477;29;20032;-78
2023/02/24 03:51:25;;;;;;;5.70;3.22;;;2.40;99.90;;;;;;8137318;29;20109;-77
2023/02/24 03:56:09;;;;;;;7.85;3.65;;;2.30;99.90;;;;;;8139819;29;20032;-78
2023/02/24 04:00:32;;;;;;;9.10;3.45;;;2.30;99.90;;;;;;8124457;29;20478;-77
2023/02/24 04:04:46;;;;;;;5.95;2.90;;;1.90;99.90;;;;;;8134522;29;20434;-78
2023/02/24 04:08:51;;;;;;;8.60;3.80;;;1.70;99.90;;;;;;8135367;29;20421;-78
2023/02/24 04:13:03;;;;;;;7.53;3.85;;;2.10;99.90;;;;;;8131179;29;20025;-78
2023/02/24 04:17:30;;;;;;;8.27;3.08;;;2.00;99.90;;;;;;8135537;29;20028;-77
2023/02/24 04:21:32;;;;;;;10.93;4.43;;;1.80;99.90;;;;;;8133900;29;20028;-77
2023/02/24 04:25:33;;;;;;;7.20;4.10;;;1.90;99.90;;;;;;8134175;29;20035;-78
2023/02/24 04:29:39;;;;;;;7.00;3.80;;;1.60;99.90;;;;;;8134820;29;20501;-77
2023/02/24 04:33:39;;;;;;;9.32;4.43;;;1.30;99.90;;;;;;8133760;29;20079;-80
2023/02/24 04:37:43;;;;;;;6.90;3.67;;;1.10;99.90;;;;;;8135054;29;20024;-77
2023/02/24 04:41:49;;;;;;;7.50;4.45;;;0.90;99.90;;;;;;8131945;29;20043;-77
2023/02/24 04:45:50;;;;;;;6.20;3.60;;;0.90;99.90;;;;;;8129084;29;20092;-78
2023/02/24 04:49:51;;;;;;;8.38;4.05;;;0.80;99.90;;;;;;8131306;29;20087;-78
2023/02/24 04:53:54;;;;;;;6.90;3.42;;;0.70;99.90;;;;;;8130406;29;20425;-78
2023/02/24 04:57:55;;;;;;;7.57;3.75;;;0.90;99.90;;;;;;8133698;29;20032;-78
2023/02/24 05:02:00;;;;;;;10.52;4.10;;;0.90;99.90;;;;;;8134076;29;20028;-78
2023/02/24 05:06:01;;;;;;;7.65;4.13;;;0.90;99.90;;;;;;8134638;29;20066;-78
2023/02/24 05:10:02;;;;;;;8.45;3.90;;;0.80;99.90;;;;;;8136422;29;20020;-78
2023/02/24 05:14:03;;;;;;;7.45;3.33;;;0.70;99.90;;;;;;8136069;29;20505;-78
2023/02/24 05:18:06;;;;;;;8.50;4.60;;;0.60;99.90;;;;;;8136064;29;20185;-78
2023/02/24 05:22:08;;;;;;;8.02;3.80;;;0.60;99.90;;;;;;8135823;29;20461;-78
2023/02/24 05:26:11;;;;;;;12.00;5.28;;;0.50;99.90;;;;;;8135895;29;20028;-78
2023/02/24 05:30:13;;;;;;;11.07;4.38;;;0.50;99.90;;;;;;8134958;29;20032;-78
2023/02/24 05:34:16;;;;;;;9.52;4.63;;;0.40;99.90;;;;;;8135094;29;20584;-78
2023/02/24 05:38:18;;;;;;;10.45;5.32;;;0.40;99.90;;;;;;8131120;29;20032;-78
2023/02/24 05:42:19;;;;;;;7.82;4.15;;;0.50;99.90;;;;;;8132270;29;20028;-79
2023/02/24 05:46:26;;;;;;;8.50;4.90;;;0.60;99.90;;;;;;8135327;29;20039;-79
2023/02/24 05:50:27;;;;;;;12.00;4.97;;;0.80;99.90;;;;;;8135144;29;20212;-78
2023/02/24 05:54:34;;;;;;;16.83;6.25;;;0.90;99.90;;;;;;8134230;29;20024;-79
2023/02/24 05:58:38;;;;;;;11.50;5.38;;;1.10;99.90;;;;;;8140629;29;20474;-79
2023/02/24 06:02:41;;;;;;;8.95;4.75;;;1.10;99.90;;;;;;8141542;29;20032;-78
2023/02/24 06:06:42;;;;;;;11.52;4.80;;;1.30;99.90;;;;;;8141429;29;20071;-78
2023/02/24 06:10:45;;;;;;;7.38;4.22;;;1.30;99.90;;;;;;8141161;29;20366;-79
2023/02/24 06:14:46;;;;;;;8.90;4.30;;;1.20;99.90;;;;;;8141026;29;20036;-78
2023/02/24 06:18:48;;;;;;;9.10;4.18;;;1.10;99.90;;;;;;8140460;29;20131;-77
2023/02/24 06:22:53;;;;;;;14.20;4.88;;;1.30;99.90;;;;;;8141918;29;20024;-82
2023/02/24 06:27:01;;;;;;;12.68;5.82;;;1.50;99.90;;;;;;8145898;29;20482;-78
2023/02/24 06:31:05;;;;;;;18.92;5.53;;;1.60;99.90;;;;;;8141188;29;20020;-78
2023/02/24 06:35:07;;;;;;;26.52;6.07;;;1.60;99.90;;;;;;8139085;29;20036;-77
2023/02/24 06:39:08;;;;;;;27.10;7.53;;;1.70;99.90;;;;;;8140014;29;20374;-77
2023/02/24 06:43:09;;;;;;;22.83;6.47;;;1.90;99.90;;;;;;8137389;29;20032;-77
2023/02/24 06:47:12;;;;;;;41.50;7.57;;;2.00;99.90;;;;;;8138886;29;20028;-77
2023/02/24 06:51:14;;;;;;;17.45;5.80;;;2.10;99.90;;;;;;8137537;29;20029;-77
2023/02/24 06:55:24;;;;;;;16.40;6.07;;;2.10;99.90;;;;;;8136685;29;20295;-78
2023/02/24 06:59:28;;;;;;;36.15;6.53;;;2.20;99.90;;;;;;8135907;29;20111;-76
2023/02/24 07:03:38;;;;;;;20.52;6.55;;;2.30;99.90;;;;;;8135992;29;20047;-78
2023/02/24 07:07:44;;;;;;;54.20;8.93;;;2.70;99.90;;;;;;8136832;29;20123;-78
2023/02/24 07:11:50;;;;;;;48.55;10.75;;;2.90;99.90;;;;;;8134411;29;20558;-77
2023/02/24 07:15:51;;;;;;;46.08;10.85;;;3.10;99.90;;;;;;8136739;29;20055;-78
2023/02/24 07:19:53;;;;;;;25.50;8.95;;;3.00;99.90;;;;;;8136843;29;20034;-78
2023/02/24 07:23:55;;;;;;;43.78;10.55;;;3.10;99.90;;;;;;8137267;29;20024;-78
2023/02/24 07:27:56;;;;;;;15.35;6.80;;;3.50;99.90;;;;;;8137105;29;20020;-78
2023/02/24 07:32:01;;;;;;;24.38;8.40;;;3.50;99.90;;;;;;8136810;29;20020;-78
2023/02/24 07:36:09;;;;;;;10.93;6.38;;;3.80;99.90;;;;;;8137416;29;20055;-79
2023/02/24 07:40:16;;;;;;;16.40;8.20;;;3.70;99.90;;;;;;8136617;29;20035;-78
2023/02/24 07:44:18;;;;;;;17.10;7.28;;;3.90;99.90;;;;;;8135244;29;20517;-78
2023/02/24 07:48:20;;;;;;;17.35;5.90;;;3.90;99.90;;;;;;8136002;29;20028;-78
2023/02/24 07:52:21;;;;;;;15.80;6.82;;;4.40;99.90;;;;;;8131902;29;20060;-78
2023/02/24 07:56:29;;;;;;;23.33;12.27;;;4.50;99.90;;;;;;8132646;29;20032;-79
2023/02/24 08:00:48;;;;;;;17.10;7.82;;;4.50;99.90;;;;;;8137490;29;20433;-79
2023/02/24 08:04:50;;;;;;;21.98;6.68;;;4.80;99.90;;;;;;8136415;29;20032;-79
2023/02/24 08:08:56;;;;;;;15.52;6.85;;;5.30;99.90;;;;;;8138364;29;20040;-79
2023/02/24 08:13:01;;;;;;;15.30;5.82;;;5.10;99.90;;;;;;8135883;29;20031;-78
2023/02/24 08:17:04;;;;;;;17.85;5.72;;;5.00;99.90;;;;;;8136552;29;20028;-78
2023/02/24 08:21:04;;;;;;;34.42;6.78;;;4.90;99.90;;;;;;8135441;29;20126;-79
2023/02/24 08:25:05;;;;;;;40.78;7.10;;;4.70;99.90;;;;;;8136098;29;20017;-79
2023/02/24 08:29:06;;;;;;;38.47;6.78;;;4.80;99.90;;;;;;8136135;29;20028;-79
2023/02/24 08:33:10;;;;;;;30.73;5.85;;;5.20;99.90;;;;;;8137686;29;20107;-80
2023/02/24 08:37:14;;;;;;;17.63;6.85;;;5.40;99.90;;;;;;8136407;29;20117;-79
2023/02/24 08:41:18;;;;;;;29.38;6.88;;;5.40;99.90;;;;;;8134777;29;20020;-78
2023/02/24 08:45:32;;;;;;;23.35;6.93;;;5.80;99.90;;;;;;8456019;27;20368;-80
2023/02/24 08:49:32;;;;;;;26.85;6.95;;;6.00;99.90;;;;;;8435516;28;20662;-79
2023/02/24 08:53:33;;;;;;;35.53;7.85;;;6.30;99.90;;;;;;8432767;28;20050;-79
2023/02/24 08:57:34;;;;;;;22.48;7.25;;;6.80;99.90;;;;;;8422107;28;20025;-81
2023/02/24 09:01:38;;;;;;;14.73;7.32;;;7.10;99.90;;;;;;8442278;28;20024;-79
2023/02/24 09:05:38;;;;;;;21.42;7.47;;;7.50;99.90;;;;;;8438033;28;20020;-80
2023/02/24 09:09:41;;;;;;;18.58;6.50;;;6.90;99.90;;;;;;8434875;28;20024;-80
2023/02/24 09:13:53;;;;;;;27.88;6.95;;;6.30;99.90;;;;;;8434428;28;20030;-80
2023/02/24 09:18:06;;;;;;;51.88;7.90;;;6.00;99.90;;;;;;8430701;28;20048;-80
2023/02/24 09:22:20;;;;;;;42.58;7.88;;;6.20;99.90;;;;;;8425584;28;20041;-81
2023/02/24 09:26:21;;;;;;;11.82;6.60;;;7.00;99.90;;;;;;8441566;28;20051;-81
2023/02/24 09:30:34;;;;;;;14.43;7.38;;;7.60;99.90;;;;;;8434095;28;20039;-80
2023/02/24 09:34:45;;;;;;;12.10;7.50;;;8.00;99.90;;;;;;8436857;28;20031;-80
2023/02/24 09:43:09;;;;;;;15.75;9.35;;;8.90;99.90;;;;;;8435227;28;20169;-80
2023/02/24 09:51:59;;;;;;;17.55;9.93;;;9.90;99.90;;;;;;8429135;28;20101;-81
2023/02/24 09:56:03;;;;;;;18.80;10.23;;;10.10;99.90;;;;;;8413964;28;20029;-79
2023/02/24 10:00:24;;;;;;;15.20;9.70;;;10.30;99.90;;;;;;8399787;28;20020;-80
2023/02/24 10:04:32;;;;;;;17.67;9.75;;;10.60;99.90;;;;;;8415653;28;20021;-81
2023/02/24 10:08:37;;;;;;;17.52;9.68;;;10.90;99.90;;;;;;8415710;28;20405;-80
2023/02/24 10:12:39;;;;;;;17.02;10.23;;;11.70;99.90;;;;;;8422140;28;20024;-82
2023/02/24 10:16:42;;;;;;;17.05;9.20;;;12.30;99.90;;;;;;8409606;28;20036;-82
2023/02/24 10:20:44;;;;;;;15.00;8.48;;;12.20;99.90;;;;;;8406970;28;20074;-81
2023/02/24 10:25:00;;;;;;;19.48;8.57;;;12.00;99.90;;;;;;8406399;28;20020;-79
2023/02/24 10:29:21;;;;;;;14.85;8.27;;;11.60;99.90;;;;;;8410171;28;20492;-80
2023/02/24 10:33:37;;;;;;;21.25;8.98;;;11.50;99.90;;;;;;8402967;28;20027;-81
2023/02/24 10:37:38;;;;;;;20.88;9.73;;;11.30;99.90;;;;;;8413571;28;20510;-80
2023/02/24 10:41:48;;;;;;;15.10;9.02;;;11.20;99.90;;;;;;8402604;28;20024;-82
2023/02/24 10:45:54;;;;;;;17.38;9.43;;;11.20;99.90;;;;;;8407292;28;20024;-81
2023/02/24 10:49:57;;;;;;;19.63;9.38;;;10.80;99.90;;;;;;8411479;28;20024;-81
2023/02/24 10:58:43;;;;;;;19.85;9.90;;;10.50;99.90;;;;;;8407916;28;20478;-81
2023/02/24 11:03:05;;;;;;;19.02;9.63;;;10.40;99.90;;;;;;8408481;28;20020;-81
2023/02/24 11:07:11;;;;;;;21.02;9.30;;;10.40;99.90;;;;;;8409696;28;20012;-80
2023/02/24 11:11:24;;;;;;;19.40;10.20;;;10.30;99.90;;;;;;8404970;28;20029;-81
2023/02/24 11:19:59;;;;;;;17.45;9.30;;;10.40;99.90;;;;;;8403133;28;20070;-80
2023/02/24 11:24:01;;;;;;;21.00;9.70;;;10.00;99.90;;;;;;8406214;28;20032;-81
2023/02/24 11:28:03;;;;;;;22.67;10.55;;;9.80;99.90;;;;;;8412467;28;20024;-81
2023/02/24 11:32:28;;;;;;;18.95;10.43;;;9.90;99.90;;;;;;8409650;28;20150;-81
2023/02/24 11:36:33;;;;;;;22.08;10.13;;;9.90;99.90;;;;;;8399923;28;20111;-81
2023/02/24 11:40:42;;;;;;;23.90;10.73;;;10.10;99.90;;;;;;8406798;28;20028;-81
2023/02/24 11:44:48;;;;;;;17.05;9.57;;;10.60;99.90;;;;;;8410673;28;20047;-81
2023/02/24 11:48:55;;;;;;;21.70;11.65;;;11.30;99.90;;;;;;8405078;28;20020;-81
2023/02/24 11:52:58;;;;;;;26.00;13.13;;;11.40;99.90;;;;;;8416782;28;20028;-80
2023/02/24 11:56:59;;;;;;;19.95;8.98;;;11.90;99.90;;;;;;8415815;28;20039;-81
2023/02/24 12:01:14;;;;;;;19.05;10.23;;;12.50;99.90;;;;;;8415573;28;20123;-80
2023/02/24 12:05:23;;;;;;;20.48;8.93;;;12.90;99.90;;;;;;8410070;28;20069;-80
2023/02/24 12:09:29;;;;;;;17.60;9.57;;;12.90;99.90;;;;;;8400362;28;20020;-80
2023/02/24 12:13:50;;;;;;;18.30;9.50;;;13.10;99.90;;;;;;8403892;28;20085;-80
2023/02/24 12:18:00;;;;;;;16.90;9.20;;;13.50;99.90;;;;;;8399677;28;20036;-81
2023/02/24 12:22:09;;;;;;;18.23;9.77;;;13.70;99.90;;;;;;8408679;28;20059;-81
2023/02/24 12:26:41;;;;;;;21.98;9.55;;;13.10;99.90;;;;;;8401937;28;20433;-80
2023/02/24 12:31:22;;;;;;;17.88;9.52;;;12.70;99.90;;;;;;8404534;28;20021;-81
2023/02/24 12:35:36;;;;;;;15.93;9.75;;;12.80;99.90;;;;;;8394276;28;20159;-81
2023/02/24 12:39:46;;;;;;;16.75;8.35;;;13.10;99.90;;;;;;8398816;28;20097;-80
2023/02/24 12:44:15;;;;;;;18.10;8.77;;;13.20;99.90;;;;;;8400166;28;20181;-81
2023/02/24 12:48:39;;;;;;;14.25;7.55;;;12.70;99.90;;;;;;8401974;28;20020;-80
2023/02/24 12:53:03;;;;;;;12.57;7.28;;;12.50;99.90;;;;;;8394543;28;20036;-80
2023/02/24 12:57:10;;;;;;;18.00;7.72;;;12.60;99.90;;;;;;8392430;28;20045;-80
2023/02/24 13:01:32;;;;;;;15.00;8.50;;;12.50;99.90;;;;;;8408936;28;20553;-80
2023/02/24 13:06:01;;;;;;;17.75;8.68;;;12.50;99.90;;;;;;8402277;28;20032;-80
2023/02/24 13:10:29;;;;;;;16.40;6.78;;;12.80;99.90;;;;;;8404352;28;20025;-80
2023/02/24 13:14:39;;;;;;;16.70;7.35;;;13.20;99.90;;;;;;8393352;28;20028;-80
2023/02/24 13:18:40;;;;;;;14.55;7.82;;;12.10;99.90;;;;;;8406171;28;20033;-81
2023/02/24 13:22:42;;;;;;;18.98;8.60;;;11.60;99.90;;;;;;8412884;28;20036;-79
2023/02/24 13:26:42;;;;;;;18.30;8.52;;;11.40;99.90;;;;;;8401507;28;20044;-81
2023/02/24 13:30:43;;;;;;;14.82;7.55;;;11.50;99.90;;;;;;8399068;28;20503;-80
2023/02/24 13:34:44;;;;;;;18.42;8.13;;;11.70;99.90;;;;;;8413780;28;20696;-80
2023/02/24 13:38:47;;;;;;;17.13;8.05;;;11.90;99.90;;;;;;8411963;28;20025;-79
2023/02/24 13:43:00;;;;;;;18.30;8.25;;;11.70;99.90;;;;;;8413577;28;20028;-79
2023/02/24 13:47:24;;;;;;;17.23;8.07;;;11.50;99.90;;;;;;8400618;28;20048;-80
2023/02/24 13:51:39;;;;;;;14.30;7.45;;;11.30;99.90;;;;;;8382861;28;20024;-79
2023/02/24 13:55:49;;;;;;;16.40;8.27;;;11.00;99.90;;;;;;8405445;28;20021;-78
2023/02/24 14:00:10;;;;;;;15.13;7.67;;;10.70;99.90;;;;;;8410876;28;20093;-79
2023/02/24 14:04:20;;;;;;;16.25;7.72;;;10.50;99.90;;;;;;8408008;28;20091;-80
2023/02/24 14:08:31;;;;;;;14.20;6.10;;;10.00;99.90;;;;;;8412066;28;20021;-80
2023/02/24 14:12:34;;;;;;;25.95;7.90;;;9.60;99.90;;;;;;8410841;28;20040;-80
2023/02/24 14:16:38;;;;;;;15.02;6.55;;;9.60;99.90;;;;;;8402723;28;20082;-80
2023/02/24 14:20:40;;;;;;;16.48;6.05;;;9.80;99.90;;;;;;8414753;28;20481;-79
2023/02/24 14:24:41;;;;;;;10.20;6.03;;;10.00;99.90;;;;;;8403022;28;20055;-79
2023/02/24 14:28:41;;;;;;;21.50;7.20;;;9.90;99.90;;;;;;8403415;28;20024;-78
2023/02/24 14:32:42;;;;;;;17.30;7.53;;;9.70;99.90;;;;;;8406569;28;20029;-79
2023/02/24 14:36:44;;;;;;;17.27;7.47;;;9.70;99.90;;;;;;8416439;28;20096;-80
2023/02/24 14:40:48;;;;;;;19.15;7.88;;;9.80;99.90;;;;;;8401664;28;20029;-80
2023/02/24 14:44:51;;;;;;;14.90;6.28;;;9.80;99.90;;;;;;8399696;28;20032;-81
2023/02/24 14:48:55;;;;;;;14.27;6.50;;;9.70;99.90;;;;;;8418968;28;20047;-81
2023/02/24 14:52:58;;;;;;;15.38;6.22;;;9.70;99.90;;;;;;8413361;28;20020;-82
2023/02/24 14:57:00;;;;;;;14.57;6.45;;;9.70;99.90;;;;;;8422045;28;20035;-81
2023/02/24 15:01:05;;;;;;;14.23;7.15;;;9.70;99.90;;;;;;8413313;28;20024;-81
2023/02/24 15:05:07;;;;;;;16.45;7.50;;;9.90;99.90;;;;;;8410089;28;20021;-82
2023/02/24 15:09:16;;;;;;;21.15;6.70;;;10.10;99.90;;;;;;8414245;28;20024;-82
2023/02/24 15:13:41;;;;;;;12.27;6.05;;;10.10;99.90;;;;;;8413425;28;20020;-81
2023/02/24 15:17:42;;;;;;;11.48;6.03;;;10.00;99.90;;;;;;8435776;28;20036;-82
2023/02/24 15:21:43;;;;;;;17.05;6.32;;;10.00;99.90;;;;;;8404848;28;20025;-82
2023/02/24 15:25:45;;;;;;;13.23;6.97;;;9.80;99.90;;;;;;8410591;28;20365;-82
2023/02/24 15:29:57;;;;;;;14.68;6.35;;;9.90;99.90;;;;;;8420638;28;20069;-82
2023/02/24 15:34:00;;;;;;;13.77;7.88;;;10.30;99.90;;;;;;8432037;28;20039;-82
2023/02/24 15:38:01;;;;;;;15.50;8.02;;;10.00;99.90;;;;;;8409270;28;20027;-82
2023/02/24 15:42:27;;;;;;;17.70;7.28;;;10.00;99.90;;;;;;8411884;28;20028;-82
2023/02/24 15:46:33;;;;;;;18.17;7.57;;;9.90;99.90;;;;;;8418639;28;20108;-81
2023/02/24 15:50:33;;;;;;;15.10;7.13;;;9.80;99.90;;;;;;8415079;28;20051;-82
2023/02/24 15:54:36;;;;;;;18.58;7.90;;;9.60;99.90;;;;;;8399872;28;20169;-81
2023/02/24 15:58:39;;;;;;;16.80;7.18;;;9.30;99.90;;;;;;8416289;28;20024;-81
2023/02/24 16:02:40;;;;;;;18.08;7.85;;;9.20;99.90;;;;;;8404758;28;20035;-81
2023/02/24 16:06:52;;;;;;;16.95;7.75;;;9.40;99.90;;;;;;8405972;28;20046;-81
2023/02/24 16:10:53;;;;;;;20.33;8.82;;;9.50;99.90;;;;;;8406874;28;20029;-81
2023/02/24 16:15:00;;;;;;;15.75;8.07;;;9.80;99.90;;;;;;8401548;28;20420;-81
2023/02/24 16:19:01;;;;;;;24.63;9.93;;;9.50;99.90;;;;;;8395583;28;20029;-81
2023/02/24 16:23:03;;;;;;;23.95;11.23;;;9.10;99.90;;;;;;8406030;28;20090;-81
2023/02/24 16:27:05;;;;;;;17.42;9.98;;;9.00;99.90;;;;;;8398544;28;20029;-81
2023/02/24 16:31:06;;;;;;;22.70;9.95;;;9.00;99.90;;;;;;8399332;28;20071;-81
2023/02/24 16:35:09;;;;;;;19.45;11.55;;;8.90;99.90;;;;;;8400475;28;20690;-81
2023/02/24 16:39:13;;;;;;;43.35;20.63;;;8.70;99.90;;;;;;8414453;28;20024;-81
2023/02/24 16:43:14;;;;;;;33.22;16.95;;;8.70;99.90;;;;;;8405842;28;20036;-81
2023/02/24 16:47:19;;;;;;;32.97;16.70;;;8.70;99.90;;;;;;8409254;28;20020;-81
2023/02/24 16:51:20;;;;;;;25.90;13.40;;;8.60;99.90;;;;;;8414794;28;20479;-81
2023/02/24 16:55:21;;;;;;;23.85;11.43;;;8.70;99.90;;;;;;8408012;28;20100;-81
2023/02/24 16:59:22;;;;;;;20.80;11.18;;;8.70;99.90;;;;;;8406908;28;20514;-81
2023/02/24 17:03:27;;;;;;;24.60;11.85;;;8.80;99.90;;;;;;8406026;28;20032;-81
2023/02/24 17:07:27;;;;;;;22.40;11.15;;;9.00;99.90;;;;;;8425040;28;20012;-81
2023/02/24 17:11:28;;;;;;;22.05;10.38;;;8.60;99.90;;;;;;8416998;28;20507;-80
2023/02/24 17:15:28;;;;;;;24.17;10.75;;;8.50;99.90;;;;;;8417090;28;20065;-81
2023/02/24 17:19:29;;;;;;;22.98;11.93;;;8.30;99.90;;;;;;8410106;28;20050;-81
2023/02/24 17:23:31;;;;;;;22.25;10.93;;;8.20;99.90;;;;;;8415798;28;20024;-80
2023/02/24 17:27:31;;;;;;;18.58;8.93;;;8.10;99.90;;;;;;8415580;28;20199;-81
2023/02/24 17:31:33;;;;;;;24.65;10.18;;;8.10;99.90;;;;;;8429695;28;20032;-80
2023/02/24 17:35:34;;;;;;;18.98;9.80;;;8.00;99.90;;;;;;8427220;28;20087;-79
2023/02/24 17:39:34;;;;;;;25.02;11.32;;;7.80;99.90;;;;;;8392468;28;20032;-81
2023/02/24 17:43:35;;;;;;;17.48;9.30;;;7.70;99.90;;;;;;8401772;28;20029;-80
2023/02/24 17:47:35;;;;;;;63.60;27.52;;;7.60;99.90;;;;;;8408364;28;20460;-81
2023/02/24 17:51:36;;;;;;;24.75;13.23;;;7.40;99.90;;;;;;8409975;28;20081;-80
2023/02/24 17:55:37;;;;;;;29.05;13.98;;;7.40;99.90;;;;;;8405561;28;20054;-80
2023/02/24 17:59:37;;;;;;;30.23;11.93;;;7.50;99.90;;;;;;8399275;28;20032;-81
2023/02/24 18:03:38;;;;;;;25.02;11.68;;;7.50;99.90;;;;;;8398278;28;20225;-80
2023/02/24 18:07:39;;;;;;;23.65;10.90;;;7.70;99.90;;;;;;8379262;28;20036;-80
2023/02/24 18:11:39;;;;;;;19.88;10.13;;;8.10;99.90;;;;;;8386773;28;20269;-80
2023/02/24 18:15:40;;;;;;;19.15;8.70;;;8.00;99.90;;;;;;8377781;28;20039;-79
2023/02/24 18:19:40;;;;;;;26.70;9.05;;;8.10;99.90;;;;;;8379025;28;20144;-81
2023/02/24 18:23:41;;;;;;;17.40;8.80;;;8.20;99.90;;;;;;8390293;28;20036;-80
2023/02/24 18:27:41;;;;;;;25.40;10.43;;;8.00;99.90;;;;;;8379722;28;20047;-86
2023/02/24 18:31:42;;;;;;;22.15;9.25;;;8.10;99.90;;;;;;8413704;28;20024;-86
2023/02/24 18:35:42;;;;;;;22.00;9.52;;;8.20;99.90;;;;;;8401723;28;20052;-86
2023/02/24 18:39:43;;;;;;;18.55;9.10;;;8.00;99.90;;;;;;8413903;28;20036;-87
2023/02/24 18:43:47;;;;;;;19.38;8.80;;;8.10;99.90;;;;;;8401385;28;20024;-82
2023/02/24 18:47:50;;;;;;;19.27;7.90;;;8.00;99.90;;;;;;8399352;28;20392;-80
2023/02/24 18:51:51;;;;;;;17.83;6.78;;;8.10;99.90;;;;;;8399639;28;20036;-81
2023/02/24 18:55:58;;;;;;;12.43;5.65;;;7.90;99.90;;;;;;8404443;28;20571;-80
2023/02/24 18:59:59;;;;;;;11.90;5.22;;;7.80;99.90;;;;;;8400034;28;20031;-80
2023/02/24 19:04:00;;;;;;;19.77;5.43;;;8.00;99.90;;;;;;8404084;28;20032;-79
2023/02/24 19:08:01;;;;;;;16.48;5.32;;;8.00;99.90;;;;;;8412719;28;20025;-80
2023/02/24 19:12:01;;;;;;;7.03;4.03;;;8.00;99.90;;;;;;8406583;28;20088;-80
2023/02/24 19:16:02;;;;;;;15.38;5.05;;;7.70;99.90;;;;;;8411085;28;20031;-80
2023/02/24 19:20:03;;;;;;;14.32;4.63;;;7.50;99.90;;;;;;8413898;28;20029;-81
2023/02/24 19:24:06;;;;;;;18.45;5.30;;;7.50;99.90;;;;;;8406899;28;20090;-82
2023/02/24 19:28:07;;;;;;;17.73;5.88;;;7.60;99.90;;;;;;8403605;28;20032;-82
2023/02/24 19:32:07;;;;;;;11.80;5.38;;;7.70;99.90;;;;;;8409560;28;20020;-82
2023/02/24 19:36:09;;;;;;;11.98;5.28;;;7.70;99.90;;;;;;8406781;28;20084;-83
2023/02/24 19:40:10;;;;;;;8.63;4.28;;;7.60;99.90;;;;;;8407923;28;20024;-83
2023/02/24 19:44:11;;;;;;;11.65;5.68;;;7.60;99.90;;;;;;8399162;28;20064;-80
2023/02/24 19:48:11;;;;;;;18.20;7.07;;;7.50;99.90;;;;;;8410729;28;20267;-81
2023/02/24 19:52:12;;;;;;;15.50;6.70;;;7.50;99.90;;;;;;8412559;28;20023;-81
2023/02/24 19:56:12;;;;;;;19.40;8.30;;;7.90;99.90;;;;;;8414562;28;20024;-80
2023/02/24 20:00:13;;;;;;;9.50;5.57;;;7.70;99.90;;;;;;8412455;28;20411;-80
2023/02/24 20:04:14;;;;;;;13.43;5.50;;;7.70;99.90;;;;;;8407516;28;20035;-79
2023/02/24 20:08:14;;;;;;;15.82;5.57;;;7.80;99.90;;;;;;8398656;28;20020;-79
2023/02/24 20:12:15;;;;;;;11.25;4.30;;;7.70;99.90;;;;;;8401227;28;20028;-80
2023/02/24 20:16:17;;;;;;;15.68;4.97;;;7.80;99.90;;;;;;8404612;28;20036;-81
2023/02/24 20:20:19;;;;;;;6.35;3.05;;;7.70;99.90;;;;;;8399795;28;20025;-79
2023/02/24 20:24:19;;;;;;;11.18;5.07;;;7.60;99.90;;;;;;8403834;28;20028;-77
2023/02/24 20:28:20;;;;;;;9.25;4.40;;;7.50;99.90;;;;;;8399592;28;20028;-80
2023/02/24 20:32:22;;;;;;;8.77;4.28;;;7.30;99.90;;;;;;8398931;28;20047;-79
2023/02/24 20:36:25;;;;;;;12.35;4.15;;;7.50;99.90;;;;;;8399124;28;20020;-80
2023/02/24 20:40:26;;;;;;;11.07;4.53;;;7.40;99.90;;;;;;8398930;28;20029;-80
2023/02/24 20:44:27;;;;;;;12.27;5.03;;;7.30;99.90;;;;;;8391625;28;20040;-81
2023/02/24 20:48:27;;;;;;;11.40;4.20;;;7.60;99.90;;;;;;8396107;28;20021;-80
2023/02/24 20:52:28;;;;;;;6.40;3.40;;;7.70;99.90;;;;;;8417536;28;20020;-81
2023/02/24 20:56:32;;;;;;;7.47;3.08;;;7.50;99.90;;;;;;8399019;28;20021;-80
2023/02/24 21:00:33;;;;;;;2.10;1.27;;;7.00;99.90;;;;;;8413078;28;20029;-82
2023/02/24 21:04:34;;;;;;;0.52;0.40;;;6.40;99.90;;;;;;8414765;28;20412;-83
2023/02/24 21:08:34;;;;;;;0.82;0.52;;;6.20;99.90;;;;;;8397556;28;20025;-82
2023/02/24 21:12:35;;;;;;;1.50;0.80;;;6.00;99.90;;;;;;8410661;28;20048;-82
2023/02/24 21:16:35;;;;;;;2.80;1.20;;;5.90;99.90;;;;;;8410459;28;20036;-81
2023/02/24 21:20:36;;;;;;;3.50;1.05;;;5.80;99.90;;;;;;8398504;28;20016;-83
2023/02/24 21:24:36;;;;;;;1.58;0.60;;;5.60;99.90;;;;;;8415919;28;20090;-82
2023/02/24 21:28:38;;;;;;;1.45;0.70;;;;;;;;;;8410285;28;20028;-83
2023/02/24 21:32:38;;;;;;;1.48;1.08;;;5.00;99.90;;;;;;8411335;28;20028;-84
2023/02/24 21:36:39;;;;;;;1.95;1.10;;;5.00;99.90;;;;;;8420112;28;20019;-84
2023/02/24 21:40:39;;;;;;;4.18;0.80;;;5.00;99.90;;;;;;8412061;28;20489;-83
2023/02/24 21:44:40;;;;;;;3.25;1.77;;;4.90;99.90;;;;;;8410426;28;20047;-83